This is the latest recevied weather packets stored in our database for station/object KG4K-13. If no packets are shown the sender has not sent any weather packets the latest 10 day(s).
| Time | Temp. | Humidity | Pressure | Rain* | Wind** | Luminosity | Snow |
|---|---|---|---|---|---|---|---|
| 1778018118 | 22.22° C | 62% | 1010.2 hPa | 0 mm | - | 171 W/m² | - |
| 1778013936 | 23.33° C | 58% | 1009.9 hPa | 0 mm | - | 116 W/m² | - |
| 1778012116 | 23.89° C | 59% | 1010.1 hPa | 0 mm | - | 606 W/m² | - |
| 1778009717 | 23.89° C | 60% | 1010.6 hPa | 0 mm | - | 752 W/m² | - |
| 1778006718 | 25° C | 57% | 1011.4 hPa | 0 mm | - | 877 W/m² | - |
| 1778006138 | 25° C | 56% | 1011.5 hPa | 0 mm | - | 882 W/m² | - |
| 1778000716 | 23.33° C | 63% | 1012.2 hPa | 0 mm | - | 957 W/m² | - |
| 1778000136 | 23.89° C | 62% | 1012.4 hPa | 0 mm | - | 953 W/m² | - |
| 1777998317 | 23.33° C | 63% | 1012.8 hPa | 0 mm | - | 932 W/m² | - |
| 1777996516 | 22.22° C | 64% | 1013 hPa | 0 mm | - | 893 W/m² | - |
| 1777995317 | 22.22° C | 65% | 1013.1 hPa | 0 mm | - | 859 W/m² | - |
| 1777993517 | 21.67° C | 64% | 1013.1 hPa | 0 mm | - | 793 W/m² | - |
| 1777989316 | 22.22° C | 51% | 1012.8 hPa | 0 mm | - | 607 W/m² | - |
| 1777988117 | 21.67° C | 53% | 1012.9 hPa | 0 mm | - | 543 W/m² | - |
| 1777982720 | 18.33° C | 60% | 1012.8 hPa | 0 mm | - | 60 W/m² | - |
| 1777965325 | 15.56° C | 79% | 1011.7 hPa | 0 mm | - | 0 W/m² | - |
| 1777964125 | 15.56° C | 82% | 1011.7 hPa | 0 mm | - | 0 W/m² | - |
| 1777963525 | 15.56° C | 81% | 1011.7 hPa | 0 mm | - | 0 W/m² | - |
| 1777962925 | 15.56° C | 82% | 1011.7 hPa | 0 mm | - | 0 W/m² | - |
| 1777961126 | 15° C | 87% | 1011.7 hPa | 0 mm | - | 0 W/m² | - |
| 1777960526 | 15° C | 88% | 1011.8 hPa | 0 mm | - | 0 W/m² | - |
| 1777959926 | 15° C | 87% | 1011.7 hPa | 0 mm | - | 0 W/m² | - |
| 1777959326 | 15° C | 86% | 1011.7 hPa | 0 mm | - | 0 W/m² | - |
| 1777952718 | 16.11° C | 83% | 1011.6 hPa | 0 mm | - | 0 W/m² | - |
| 1777952118 | 16.11° C | 82% | 1011.6 hPa | 0 mm | - | 0 W/m² | - |
* Rain latest hour (hover to see other rain measurements)
** Current wind speed in m/s (hover to see current wind gust speed)